createdAt,value
2023-05-06T00:00:58.515Z,8.80
2023-05-06T00:03:26.310Z,8.80
2023-05-06T00:05:53.754Z,8.80
2023-05-06T00:08:21.677Z,8.80
2023-05-06T00:10:48.902Z,8.80
2023-05-06T00:13:16.735Z,8.90
2023-05-06T00:15:44.320Z,8.90
2023-05-06T00:18:11.904Z,8.90
2023-05-06T00:20:39.385Z,8.90
2023-05-06T00:23:06.941Z,8.90
2023-05-06T00:25:36.504Z,8.90
2023-05-06T00:28:04.183Z,8.90
2023-05-06T00:30:31.618Z,8.90
2023-05-06T00:32:59.181Z,8.90
2023-05-06T00:35:26.719Z,8.90
2023-05-06T00:38:06.569Z,8.90
2023-05-06T00:40:33.735Z,8.80
2023-05-06T00:43:01.260Z,8.80
2023-05-06T00:45:28.584Z,8.80
2023-05-06T00:47:57.474Z,8.80
2023-05-06T00:50:28.416Z,8.70
2023-05-06T00:52:58.200Z,8.70
2023-05-06T00:55:26.250Z,8.80
2023-05-06T00:57:54.658Z,8.80
2023-05-06T01:00:22.297Z,8.80
2023-05-06T01:02:50.009Z,8.80
2023-05-06T01:05:20.891Z,8.80
2023-05-06T01:08:16.038Z,8.80
2023-05-06T01:10:53.487Z,8.80
2023-05-06T01:13:35.533Z,8.80
2023-05-06T01:16:05.087Z,8.80
2023-05-06T01:18:34.764Z,8.80
2023-05-06T01:21:04.804Z,8.80
2023-05-06T01:23:56.660Z,8.80
2023-05-06T01:26:24.801Z,8.70
2023-05-06T01:28:52.560Z,8.80
2023-05-06T01:31:52.499Z,8.70
2023-05-06T01:34:36.166Z,8.70
2023-05-06T01:37:06.664Z,8.70
2023-05-06T01:39:34.694Z,8.70
2023-05-06T01:42:03.189Z,8.70
2023-05-06T01:44:34.392Z,8.60
2023-05-06T01:47:02.542Z,8.60
2023-05-06T01:49:30.619Z,8.60
2023-05-06T01:51:58.031Z,8.60
2023-05-06T01:54:25.937Z,8.60
2023-05-06T01:56:54.222Z,8.60
2023-05-06T01:59:21.731Z,8.60
2023-05-06T02:01:49.009Z,8.60
2023-05-06T02:04:17.305Z,8.60
2023-05-06T02:06:45.074Z,8.60
2023-05-06T02:09:15.983Z,8.60
2023-05-06T02:11:48.251Z,8.60
2023-05-06T02:14:15.805Z,8.60
2023-05-06T02:16:43.451Z,8.60
2023-05-06T02:19:11.124Z,8.60
2023-05-06T02:21:38.394Z,8.60
2023-05-06T02:24:06.964Z,8.60
2023-05-06T02:26:34.435Z,8.60
2023-05-06T02:29:02.005Z,8.60
2023-05-06T02:31:29.440Z,8.60
2023-05-06T02:33:56.921Z,8.70
2023-05-06T02:36:24.195Z,8.70
2023-05-06T02:38:51.970Z,8.70
2023-05-06T02:41:19.268Z,8.70
2023-05-06T02:43:47.131Z,8.80
2023-05-06T02:46:14.531Z,8.80
2023-05-06T02:48:42.273Z,8.80
2023-05-06T02:51:09.503Z,8.80
2023-05-06T02:53:36.924Z,8.80
2023-05-06T02:56:04.483Z,8.80
2023-05-06T02:58:32.134Z,8.80
2023-05-06T03:00:59.508Z,8.80
2023-05-06T03:03:27.084Z,8.80
2023-05-06T03:05:54.276Z,8.80
2023-05-06T03:08:22.260Z,8.80
2023-05-06T03:10:50.816Z,8.80
2023-05-06T03:13:20.650Z,8.90
2023-05-06T03:15:54.262Z,8.80
2023-05-06T03:18:22.840Z,8.80
2023-05-06T03:20:51.004Z,8.70
2023-05-06T03:23:19.171Z,8.70
2023-05-06T03:25:46.767Z,8.70
2023-05-06T03:28:15.801Z,8.80
2023-05-06T03:30:45.598Z,8.80
2023-05-06T03:33:13.481Z,8.80
2023-05-06T03:35:42.417Z,8.80
2023-05-06T03:38:10.118Z,8.80
2023-05-06T03:40:44.472Z,8.80
2023-05-06T03:43:12.887Z,8.80
2023-05-06T03:45:40.556Z,8.90
2023-05-06T03:48:08.831Z,8.80
2023-05-06T03:50:39.870Z,8.90
2023-05-06T03:53:07.947Z,8.90
2023-05-06T03:55:37.594Z,9.00
2023-05-06T03:58:06.451Z,8.90
2023-05-06T04:00:33.699Z,8.90
2023-05-06T04:03:01.219Z,9.00
2023-05-06T04:05:39.333Z,9.10
2023-05-06T04:08:07.623Z,9.10
2023-05-06T04:10:41.484Z,9.10
2023-05-06T04:13:18.072Z,9.10
2023-05-06T04:15:46.061Z,9.30
2023-05-06T04:18:20.066Z,9.20
2023-05-06T04:20:56.648Z,9.20
2023-05-06T04:23:25.288Z,9.20
2023-05-06T04:25:53.074Z,9.30
2023-05-06T04:28:23.583Z,9.30
2023-05-06T04:30:52.888Z,9.40
2023-05-06T04:33:25.079Z,9.50
2023-05-06T04:35:54.068Z,9.60
2023-05-06T04:38:23.706Z,9.60
2023-05-06T04:40:51.151Z,9.70
2023-05-06T04:43:19.912Z,9.60
2023-05-06T04:45:49.818Z,9.60
2023-05-06T04:48:22.914Z,9.60
2023-05-06T04:50:51.413Z,9.80
2023-05-06T04:53:18.977Z,9.80
2023-05-06T04:55:47.154Z,9.90
2023-05-06T04:58:16.240Z,9.80
2023-05-06T05:00:44.509Z,9.80
2023-05-06T05:03:12.187Z,9.80
2023-05-06T05:05:39.524Z,9.80
2023-05-06T05:08:14.652Z,9.90
2023-05-06T05:10:43.547Z,9.90
2023-05-06T05:13:14.467Z,9.90
2023-05-06T05:15:42.422Z,10.00
2023-05-06T05:18:10.936Z,9.80
2023-05-06T05:20:39.542Z,9.90
2023-05-06T05:23:10.389Z,9.90
2023-05-06T05:25:38.298Z,9.90
2023-05-06T05:28:06.440Z,9.90
2023-05-06T05:30:35.314Z,10.00
2023-05-06T05:33:03.331Z,10.00
2023-05-06T05:35:31.419Z,10.10
2023-05-06T05:37:59.483Z,9.90
2023-05-06T05:40:27.606Z,10.00
2023-05-06T05:42:55.449Z,10.20
2023-05-06T05:45:29.197Z,10.20
2023-05-06T05:47:57.417Z,10.40
2023-05-06T05:50:26.223Z,10.50
2023-05-06T05:52:54.707Z,10.80
2023-05-06T05:55:22.637Z,10.60
2023-05-06T05:57:51.530Z,10.50
2023-05-06T06:00:21.941Z,10.70
2023-05-06T06:02:56.813Z,10.70
2023-05-06T06:05:24.288Z,11.00
2023-05-06T06:07:52.260Z,11.00
2023-05-06T06:10:20.189Z,11.00
2023-05-06T06:12:48.039Z,11.00
2023-05-06T06:15:20.314Z,11.00
2023-05-06T06:17:48.026Z,11.10
2023-05-06T06:20:15.341Z,11.50
2023-05-06T06:22:43.097Z,11.70
2023-05-06T06:25:11.062Z,11.50
2023-05-06T06:27:38.739Z,11.50
2023-05-06T06:30:08.034Z,11.70
2023-05-06T06:32:35.820Z,11.80
2023-05-06T06:35:03.464Z,11.80
2023-05-06T06:37:31.057Z,11.70
2023-05-06T06:39:58.220Z,12.00
2023-05-06T06:42:26.952Z,11.70
2023-05-06T06:45:10.145Z,12.00
2023-05-06T06:47:38.117Z,12.10
2023-05-06T06:50:06.152Z,12.20
2023-05-06T06:52:34.426Z,12.30
2023-05-06T06:55:02.465Z,12.20
2023-05-06T06:57:30.136Z,12.20
2023-05-06T06:59:57.391Z,12.10
2023-05-06T07:02:24.998Z,12.20
2023-05-06T07:04:52.316Z,12.00
2023-05-06T07:07:19.757Z,12.00
2023-05-06T07:09:46.918Z,12.20
2023-05-06T07:12:14.421Z,12.10
2023-05-06T07:14:41.812Z,12.20
2023-05-06T07:17:09.538Z,11.90
2023-05-06T07:19:36.966Z,11.70
2023-05-06T07:22:04.637Z,11.40
2023-05-06T07:24:31.959Z,11.30
2023-05-06T07:27:01.213Z,11.40
2023-05-06T07:29:28.742Z,11.30
2023-05-06T07:31:56.455Z,11.40
2023-05-06T07:34:23.688Z,11.60
2023-05-06T07:36:51.336Z,11.40
2023-05-06T07:39:26.028Z,11.30
2023-05-06T07:41:54.570Z,11.50
2023-05-06T07:44:24.460Z,11.50
2023-05-06T07:46:52.949Z,11.60
2023-05-06T07:49:20.739Z,11.40
2023-05-06T07:51:48.590Z,11.30
2023-05-06T07:54:15.887Z,11.30
2023-05-06T07:56:44.140Z,11.50
2023-05-06T07:59:11.885Z,11.50
2023-05-06T08:01:39.405Z,11.80
2023-05-06T08:04:07.586Z,11.80
2023-05-06T08:06:36.241Z,11.70
2023-05-06T08:09:04.693Z,11.70
2023-05-06T08:11:32.766Z,11.70
2023-05-06T08:14:00.051Z,11.60
2023-05-06T08:16:27.630Z,11.80
2023-05-06T08:18:54.949Z,11.80
2023-05-06T08:21:22.473Z,11.80
2023-05-06T08:23:49.768Z,11.70
2023-05-06T08:26:20.021Z,11.70
2023-05-06T08:28:47.277Z,11.50
2023-05-06T08:31:17.375Z,11.60
2023-05-06T08:33:44.794Z,11.70
2023-05-06T08:36:12.341Z,11.60
2023-05-06T08:38:39.632Z,11.50
2023-05-06T08:41:13.642Z,11.40
2023-05-06T08:43:42.606Z,11.50
2023-05-06T08:46:10.479Z,11.50
2023-05-06T08:48:37.793Z,11.50
2023-05-06T08:51:05.919Z,11.30
2023-05-06T08:53:40.036Z,11.20
2023-05-06T08:56:11.623Z,11.40
2023-05-06T08:58:43.463Z,11.40
2023-05-06T09:01:11.202Z,11.50
2023-05-06T09:03:38.539Z,11.50
2023-05-06T09:06:06.377Z,11.50
2023-05-06T09:08:33.619Z,11.40
2023-05-06T09:11:01.125Z,11.40
2023-05-06T09:13:28.335Z,11.50
2023-05-06T09:15:55.934Z,11.50
2023-05-06T09:18:23.646Z,11.60
2023-05-06T09:20:51.271Z,11.50
2023-05-06T09:23:19.208Z,11.60
2023-05-06T09:25:47.703Z,11.60
2023-05-06T09:28:15.358Z,11.60
2023-05-06T09:30:45.559Z,11.60
2023-05-06T09:33:12.903Z,11.70
2023-05-06T09:35:42.378Z,11.60
2023-05-06T09:38:10.348Z,11.60
2023-05-06T09:40:39.444Z,11.50
2023-05-06T09:43:07.728Z,11.50
2023-05-06T09:45:36.484Z,11.40
2023-05-06T09:48:04.205Z,11.40
2023-05-06T09:50:32.872Z,11.40
2023-05-06T09:53:00.541Z,11.40
2023-05-06T09:55:28.774Z,11.50
2023-05-06T09:57:58.156Z,11.60
2023-05-06T10:00:29.033Z,11.60
2023-05-06T10:02:58.335Z,11.60
2023-05-06T10:05:27.512Z,11.70
2023-05-06T10:07:57.245Z,11.60
2023-05-06T10:10:27.239Z,11.80
2023-05-06T10:12:55.375Z,11.80
2023-05-06T10:15:25.408Z,11.70
2023-05-06T10:17:54.297Z,11.50
2023-05-06T10:20:24.330Z,11.60
2023-05-06T10:23:03.494Z,11.80
2023-05-06T10:25:40.101Z,11.90
2023-05-06T10:28:13.513Z,11.90
2023-05-06T10:30:49.881Z,11.90
2023-05-06T10:33:17.899Z,11.80
2023-05-06T10:35:53.228Z,11.80
2023-05-06T10:38:20.384Z,12.00
2023-05-06T10:40:49.224Z,11.90
2023-05-06T10:43:30.617Z,12.00
2023-05-06T10:46:17.859Z,12.20
2023-05-06T10:49:06.763Z,12.50
2023-05-06T10:51:43.902Z,12.90
2023-05-06T10:54:11.986Z,12.70
2023-05-06T10:57:03.005Z,12.50
2023-05-06T10:59:31.517Z,12.70
2023-05-06T11:02:05.027Z,12.90
2023-05-06T11:04:32.691Z,12.60
2023-05-06T11:07:11.331Z,12.40
2023-05-06T11:10:06.170Z,12.50
2023-05-06T11:12:49.707Z,12.50
2023-05-06T11:15:35.998Z,12.60
2023-05-06T11:18:34.682Z,12.80
2023-05-06T11:21:03.841Z,12.60
2023-05-06T11:23:43.371Z,12.50
2023-05-06T11:26:11.824Z,12.30
2023-05-06T11:28:40.446Z,12.20
2023-05-06T11:31:10.140Z,12.00
2023-05-06T11:33:45.107Z,12.10
2023-05-06T11:36:20.042Z,12.30
2023-05-06T11:38:52.801Z,12.40
2023-05-06T11:41:22.896Z,12.70
2023-05-06T11:43:52.292Z,12.80
2023-05-06T11:46:22.049Z,12.70
2023-05-06T11:48:50.719Z,12.50
2023-05-06T11:51:24.646Z,12.60
2023-05-06T11:54:12.532Z,12.40
2023-05-06T11:56:47.655Z,12.30
2023-05-06T11:59:15.564Z,12.20
2023-05-06T12:01:44.032Z,11.90
2023-05-06T12:04:12.696Z,11.90
2023-05-06T12:06:40.268Z,11.90
2023-05-06T12:09:11.166Z,11.70
2023-05-06T12:11:42.072Z,11.60
2023-05-06T12:14:14.510Z,11.70
2023-05-06T12:16:42.461Z,11.70
2023-05-06T12:19:10.916Z,11.40
2023-05-06T12:21:39.057Z,11.20
2023-05-06T12:24:07.138Z,11.20
2023-05-06T12:26:48.422Z,11.00
2023-05-06T12:29:20.092Z,10.90
2023-05-06T12:31:48.375Z,10.90
2023-05-06T12:34:18.285Z,10.70
2023-05-06T12:36:47.152Z,10.50
2023-05-06T12:39:14.763Z,10.40
2023-05-06T12:41:45.153Z,10.20
2023-05-06T12:44:38.178Z,10.20
2023-05-06T12:47:07.786Z,10.30
2023-05-06T12:50:01.089Z,10.20
2023-05-06T12:52:29.968Z,10.20
2023-05-06T12:55:00.753Z,10.20
2023-05-06T12:57:28.070Z,10.30
2023-05-06T12:59:56.390Z,10.20
2023-05-06T13:02:23.975Z,10.20
2023-05-06T13:04:51.720Z,10.20
2023-05-06T13:07:19.302Z,10.20
2023-05-06T13:09:49.435Z,10.30
2023-05-06T13:12:16.921Z,10.20
2023-05-06T13:14:44.670Z,10.00
2023-05-06T13:17:12.003Z,9.80
2023-05-06T13:19:39.859Z,9.70
2023-05-06T13:22:07.535Z,9.60
2023-05-06T13:24:35.231Z,9.50
2023-05-06T13:27:02.708Z,9.60
2023-05-06T13:29:30.367Z,9.70
2023-05-06T13:31:57.945Z,9.80
2023-05-06T13:34:26.090Z,9.70
2023-05-06T13:36:54.745Z,9.80
2023-05-06T13:39:23.072Z,9.80
2023-05-06T13:41:52.226Z,9.80
2023-05-06T13:44:20.860Z,9.80
2023-05-06T13:46:48.642Z,9.60
2023-05-06T13:49:16.917Z,9.70
2023-05-06T13:51:44.262Z,9.50
2023-05-06T13:54:12.137Z,9.40
2023-05-06T13:56:39.406Z,9.60
2023-05-06T13:59:08.306Z,9.60
2023-05-06T14:01:40.447Z,9.70
2023-05-06T14:04:09.232Z,9.70
2023-05-06T14:06:36.534Z,9.70
2023-05-06T14:09:04.758Z,9.70
2023-05-06T14:11:32.067Z,9.50
2023-05-06T14:14:00.386Z,9.30
2023-05-06T14:16:27.667Z,9.20
2023-05-06T14:18:55.297Z,9.20
2023-05-06T14:21:22.879Z,9.10
2023-05-06T14:23:50.313Z,9.10
2023-05-06T14:26:17.678Z,9.00
2023-05-06T14:28:45.851Z,8.80
2023-05-06T14:31:14.311Z,8.70
2023-05-06T14:33:42.886Z,8.60
2023-05-06T14:36:10.117Z,8.70
2023-05-06T14:38:37.730Z,8.70
2023-05-06T14:41:05.009Z,8.80
2023-05-06T14:43:32.858Z,8.70
2023-05-06T14:46:00.459Z,8.70
2023-05-06T14:48:28.308Z,8.60
2023-05-06T14:50:55.548Z,8.60
2023-05-06T14:53:23.080Z,8.60
2023-05-06T14:55:50.309Z,8.50
2023-05-06T14:58:18.124Z,8.60
2023-05-06T15:00:45.379Z,8.60
2023-05-06T15:03:14.372Z,8.40
2023-05-06T15:05:41.664Z,8.40
2023-05-06T15:08:10.351Z,8.30
2023-05-06T15:10:37.621Z,8.30
2023-05-06T15:13:05.221Z,8.20
2023-05-06T15:15:32.627Z,8.30
2023-05-06T15:18:00.240Z,8.10
2023-05-06T15:20:27.730Z,8.20
2023-05-06T15:23:00.339Z,8.10
2023-05-06T15:25:35.729Z,8.10
2023-05-06T15:28:05.099Z,8.00
2023-05-06T15:30:32.486Z,8.00
2023-05-06T15:33:01.889Z,8.00
2023-05-06T15:35:30.489Z,8.00
2023-05-06T15:37:59.162Z,8.00
2023-05-06T15:40:26.967Z,8.00
2023-05-06T15:42:54.578Z,8.00
2023-05-06T15:45:22.365Z,8.00
2023-05-06T15:47:49.912Z,8.00
2023-05-06T15:50:31.634Z,8.00
2023-05-06T15:53:02.233Z,8.00
2023-05-06T15:55:30.246Z,7.90
2023-05-06T15:58:00.573Z,7.70
2023-05-06T16:00:28.176Z,7.70
2023-05-06T16:02:55.857Z,7.80
2023-05-06T16:05:23.217Z,7.80
2023-05-06T16:07:50.918Z,7.80
2023-05-06T16:10:18.391Z,7.80
2023-05-06T16:12:46.418Z,7.70
2023-05-06T16:15:13.785Z,7.60
2023-05-06T16:17:41.370Z,7.60
2023-05-06T16:20:12.734Z,7.70
2023-05-06T16:22:40.800Z,7.70
2023-05-06T16:25:08.420Z,7.70
2023-05-06T16:27:35.985Z,7.70
2023-05-06T16:30:03.607Z,7.60
2023-05-06T16:32:32.310Z,7.70
2023-05-06T16:34:59.563Z,7.60
2023-05-06T16:37:28.475Z,7.60
2023-05-06T16:39:55.986Z,7.60
2023-05-06T16:42:23.429Z,7.50
2023-05-06T16:44:51.691Z,7.50
2023-05-06T16:47:24.501Z,7.50
2023-05-06T16:49:52.466Z,7.50
2023-05-06T16:52:20.130Z,7.50
2023-05-06T16:54:47.456Z,7.50
2023-05-06T16:57:15.178Z,7.50
2023-05-06T16:59:42.412Z,7.60
2023-05-06T17:02:10.280Z,7.50
2023-05-06T17:04:37.727Z,7.40
2023-05-06T17:07:05.678Z,7.30
2023-05-06T17:09:32.999Z,7.30
2023-05-06T17:12:00.755Z,7.30
2023-05-06T17:14:28.145Z,7.30
2023-05-06T17:16:56.342Z,7.30
2023-05-06T17:19:23.664Z,7.30
2023-05-06T17:21:51.364Z,7.40
2023-05-06T17:24:18.654Z,7.40
2023-05-06T17:26:46.757Z,7.30
2023-05-06T17:29:14.156Z,7.40
2023-05-06T17:31:41.616Z,7.40
2023-05-06T17:34:08.856Z,7.40
2023-05-06T17:36:37.301Z,7.30
2023-05-06T17:39:05.567Z,7.40
2023-05-06T17:41:33.581Z,7.30
2023-05-06T17:44:01.078Z,7.40
2023-05-06T17:46:28.734Z,7.40
2023-05-06T17:48:56.103Z,7.30
2023-05-06T17:51:23.623Z,7.40
2023-05-06T17:53:51.794Z,7.30
2023-05-06T17:56:20.424Z,7.30
2023-05-06T17:58:47.988Z,7.40
2023-05-06T18:01:15.693Z,7.40
2023-05-06T18:03:43.999Z,7.30
2023-05-06T18:06:12.396Z,7.30
2023-05-06T18:08:39.594Z,7.30
2023-05-06T18:11:07.275Z,7.30
2023-05-06T18:13:36.623Z,7.30
2023-05-06T18:16:04.731Z,7.30
2023-05-06T18:18:32.066Z,7.30
2023-05-06T18:20:59.655Z,7.30
2023-05-06T18:23:26.904Z,7.20
2023-05-06T18:25:54.535Z,7.20
2023-05-06T18:28:21.813Z,7.30
2023-05-06T18:30:49.331Z,7.40
2023-05-06T18:33:16.820Z,7.40
2023-05-06T18:35:44.343Z,7.40
2023-05-06T18:38:12.365Z,7.30
2023-05-06T18:40:41.091Z,7.30
2023-05-06T18:43:08.331Z,7.30
2023-05-06T18:45:36.063Z,7.20
2023-05-06T18:48:03.858Z,7.30
2023-05-06T18:50:31.673Z,7.30
2023-05-06T18:52:58.816Z,7.30
2023-05-06T18:55:26.745Z,7.30
2023-05-06T18:57:54.336Z,7.30
2023-05-06T19:00:22.574Z,7.30
2023-05-06T19:02:49.866Z,7.30
2023-05-06T19:05:17.849Z,7.20
2023-05-06T19:07:45.118Z,7.30
2023-05-06T19:10:14.030Z,7.30
2023-05-06T19:12:41.720Z,7.20
2023-05-06T19:15:12.241Z,7.10
2023-05-06T19:17:39.822Z,7.20
2023-05-06T19:20:08.217Z,7.20
2023-05-06T19:22:35.377Z,7.30
2023-05-06T19:25:02.948Z,7.30
2023-05-06T19:27:30.102Z,7.20
2023-05-06T19:29:57.650Z,7.20
2023-05-06T19:32:25.150Z,7.20
2023-05-06T19:34:52.753Z,7.10
2023-05-06T19:37:19.990Z,7.10
2023-05-06T19:39:49.575Z,7.20
2023-05-06T19:42:17.791Z,7.10
2023-05-06T19:44:47.920Z,7.20
2023-05-06T19:47:15.384Z,7.10
2023-05-06T19:49:42.951Z,7.10
2023-05-06T19:52:10.371Z,7.10
2023-05-06T19:54:37.918Z,7.20
2023-05-06T19:57:05.081Z,7.10
2023-05-06T19:59:32.739Z,7.20
2023-05-06T20:02:01.778Z,7.20
2023-05-06T20:04:29.281Z,7.20
2023-05-06T20:06:57.893Z,7.20
2023-05-06T20:09:25.477Z,7.20
2023-05-06T20:11:52.803Z,7.20
2023-05-06T20:14:20.295Z,7.30
2023-05-06T20:16:47.766Z,7.20
2023-05-06T20:19:19.323Z,7.20
2023-05-06T20:21:46.520Z,7.20
2023-05-06T20:24:14.379Z,7.20
2023-05-06T20:26:41.544Z,7.10
2023-05-06T20:29:09.004Z,7.10
2023-05-06T20:31:36.362Z,7.00
2023-05-06T20:34:03.943Z,7.00
2023-05-06T20:36:31.672Z,7.10
2023-05-06T20:39:00.684Z,7.10
2023-05-06T20:41:28.309Z,7.10
2023-05-06T20:43:57.235Z,7.00
2023-05-06T20:46:24.770Z,7.00
2023-05-06T20:48:52.459Z,7.00
2023-05-06T20:51:19.853Z,7.00
2023-05-06T20:53:47.507Z,7.00
2023-05-06T20:56:23.050Z,7.00
2023-05-06T20:58:54.905Z,7.00
2023-05-06T21:01:23.927Z,7.10
2023-05-06T21:03:51.765Z,6.90
2023-05-06T21:06:20.607Z,6.90
2023-05-06T21:08:48.173Z,7.00
2023-05-06T21:11:15.508Z,7.00
2023-05-06T21:13:43.106Z,7.00
2023-05-06T21:16:10.490Z,7.00
2023-05-06T21:18:38.136Z,7.00
2023-05-06T21:21:05.348Z,7.00
2023-05-06T21:23:33.017Z,7.00
2023-05-06T21:26:00.522Z,7.00
2023-05-06T21:28:28.704Z,7.00
2023-05-06T21:30:56.163Z,7.00
2023-05-06T21:33:23.744Z,7.00
2023-05-06T21:35:50.924Z,7.00
2023-05-06T21:38:18.597Z,7.10
2023-05-06T21:40:46.144Z,7.00
2023-05-06T21:43:15.981Z,7.00
2023-05-06T21:45:43.515Z,6.90
2023-05-06T21:48:11.899Z,7.00
2023-05-06T21:50:39.336Z,7.10
2023-05-06T21:53:06.851Z,7.20
2023-05-06T21:55:34.184Z,7.10
2023-05-06T21:58:01.641Z,7.10
2023-05-06T22:00:28.872Z,7.20
2023-05-06T22:02:56.715Z,7.10
2023-05-06T22:05:24.092Z,7.20
2023-05-06T22:07:51.693Z,7.20
2023-05-06T22:10:19.150Z,7.20
2023-05-06T22:12:46.872Z,7.10
2023-05-06T22:15:14.836Z,7.00
2023-05-06T22:17:42.541Z,7.00
2023-05-06T22:20:13.528Z,7.00
2023-05-06T22:22:41.066Z,7.10
2023-05-06T22:25:09.318Z,7.00
2023-05-06T22:27:37.219Z,7.10
2023-05-06T22:30:04.724Z,7.10
2023-05-06T22:32:33.256Z,7.10
2023-05-06T22:35:00.520Z,7.10
2023-05-06T22:37:28.041Z,7.10
2023-05-06T22:39:58.151Z,7.10
2023-05-06T22:42:25.692Z,7.00
2023-05-06T22:44:52.912Z,7.10
2023-05-06T22:47:20.778Z,6.90
2023-05-06T22:49:48.284Z,7.00
2023-05-06T22:52:16.819Z,7.00
2023-05-06T22:54:44.175Z,7.00
2023-05-06T22:57:11.882Z,7.10
2023-05-06T22:59:39.251Z,7.10
2023-05-06T23:02:06.698Z,7.10
2023-05-06T23:04:34.133Z,7.00
2023-05-06T23:07:01.406Z,7.00
2023-05-06T23:09:28.862Z,7.00
2023-05-06T23:11:56.097Z,7.10
2023-05-06T23:14:24.026Z,7.10
2023-05-06T23:16:51.352Z,7.10
2023-05-06T23:19:21.442Z,7.10
2023-05-06T23:21:48.737Z,7.10
2023-05-06T23:24:16.412Z,7.10
2023-05-06T23:26:43.909Z,7.20
2023-05-06T23:29:11.562Z,7.00
2023-05-06T23:31:38.749Z,7.10
2023-05-06T23:34:06.386Z,7.10
2023-05-06T23:36:34.211Z,7.10
2023-05-06T23:39:01.653Z,6.90
2023-05-06T23:41:28.829Z,6.90
2023-05-06T23:43:56.299Z,7.10
2023-05-06T23:46:23.576Z,7.00
2023-05-06T23:48:51.021Z,6.90
2023-05-06T23:51:18.488Z,6.90
2023-05-06T23:53:46.531Z,6.90
2023-05-06T23:56:13.737Z,6.80
2023-05-06T23:58:41.271Z,6.90
